Time;durP1;ratioP1;P1;durP2;ratioP2;P2;SDS_P1;SDS_P2;PMS_P1;PMS_P2;Temp;Humidity;BMP_temperature;BMP_pressure;BME280_temperature;BME280_humidity;BME280_pressure;Samples;Min_cycle;Max_cycle;Signal;HPM_P1;HPM_P2
2022/12/31 00:01:06;;;;;;;52.63;7.78;;;9.30;99.90;;;;;;4973856;28;20038;-68
2022/12/31 00:03:32;;;;;;;68.20;8.25;;;9.40;99.90;;;;;;4975716;28;20038;-68
2022/12/31 00:05:58;;;;;;;49.35;8.13;;;9.40;99.90;;;;;;4976018;28;20034;-68
2022/12/31 00:08:24;;;;;;;53.35;7.30;;;9.40;99.90;;;;;;4976395;28;20073;-67
2022/12/31 00:10:49;;;;;;;82.13;9.85;;;9.40;99.90;;;;;;4975768;28;20035;-68
2022/12/31 00:13:15;;;;;;;63.83;9.65;;;9.40;99.90;;;;;;4976203;28;20102;-68
2022/12/31 00:15:42;;;;;;;69.85;9.02;;;9.40;99.90;;;;;;4975640;28;20430;-68
2022/12/31 00:18:08;;;;;;;67.38;9.27;;;9.30;99.90;;;;;;4975999;28;20107;-67
2022/12/31 00:20:38;;;;;;;66.32;8.55;;;9.30;99.90;;;;;;4976083;28;20031;-67
2022/12/31 00:23:03;;;;;;;63.00;7.88;;;9.30;99.90;;;;;;4975650;28;20077;-67
2022/12/31 00:25:29;;;;;;;51.03;8.48;;;9.30;99.90;;;;;;4975477;28;20507;-68
2022/12/31 00:27:54;;;;;;;59.40;8.52;;;9.30;99.90;;;;;;4975436;28;20031;-68
2022/12/31 00:30:20;;;;;;;60.83;9.85;;;9.30;99.90;;;;;;4975485;28;20391;-68
2022/12/31 00:32:46;;;;;;;61.10;9.80;;;9.30;99.90;;;;;;4975468;28;20106;-68
2022/12/31 00:35:11;;;;;;;69.30;9.07;;;9.40;99.90;;;;;;4975808;28;20035;-67
2022/12/31 00:37:37;;;;;;;63.78;11.10;;;9.30;99.90;;;;;;4975247;28;20022;-68
2022/12/31 00:40:03;;;;;;;59.72;7.85;;;9.30;99.90;;;;;;4975780;28;20035;-67
2022/12/31 00:42:29;;;;;;;66.28;9.30;;;9.30;99.90;;;;;;4974291;28;20037;-68
2022/12/31 00:44:54;;;;;;;54.72;7.65;;;9.40;99.90;;;;;;4975157;28;20109;-67
2022/12/31 00:47:20;;;;;;;62.58;8.27;;;9.40;99.90;;;;;;4975694;28;20065;-67
2022/12/31 00:49:45;;;;;;;69.82;9.70;;;9.40;99.90;;;;;;4975182;28;20485;-68
2022/12/31 00:52:14;;;;;;;63.03;7.95;;;9.40;99.90;;;;;;4975135;28;20483;-68
2022/12/31 00:54:40;;;;;;;75.57;11.77;;;9.50;99.90;;;;;;4975395;28;20050;-68
2022/12/31 00:57:05;;;;;;;70.97;8.65;;;9.40;99.90;;;;;;4975064;28;20513;-68
2022/12/31 00:59:31;;;;;;;60.80;8.50;;;9.50;99.90;;;;;;4974818;28;20027;-68
2022/12/31 01:01:56;;;;;;;63.47;8.40;;;9.60;99.90;;;;;;4975052;28;20027;-67
2022/12/31 01:04:22;;;;;;;69.82;7.88;;;9.50;99.90;;;;;;4975080;28;20031;-68
2022/12/31 01:06:47;;;;;;;66.38;7.50;;;9.50;99.90;;;;;;4974943;28;20031;-68
2022/12/31 01:09:16;;;;;;;62.97;9.00;;;9.50;99.90;;;;;;4955728;28;20031;-67
2022/12/31 01:11:42;;;;;;;79.43;8.55;;;9.50;99.90;;;;;;4957299;28;20030;-67
2022/12/31 01:14:11;;;;;;;63.33;10.38;;;9.60;99.90;;;;;;4974872;28;20027;-68
2022/12/31 01:16:45;;;;;;;63.20;10.52;;;9.50;99.90;;;;;;4974657;28;20023;-68
2022/12/31 01:19:14;;;;;;;63.28;8.05;;;9.40;99.90;;;;;;4955617;28;20531;-67
2022/12/31 01:21:41;;;;;;;72.50;8.80;;;9.40;99.90;;;;;;4956630;28;20415;-68
2022/12/31 01:24:08;;;;;;;54.88;8.20;;;9.30;99.90;;;;;;4974332;28;20019;-68
2022/12/31 01:26:34;;;;;;;58.38;6.97;;;9.30;99.90;;;;;;4974755;28;20031;-68
2022/12/31 01:28:59;;;;;;;66.35;7.85;;;9.30;99.90;;;;;;4974365;28;20031;-68
2022/12/31 01:31:25;;;;;;;60.22;9.70;;;9.30;99.90;;;;;;4974631;28;20089;-68
2022/12/31 01:33:51;;;;;;;57.72;8.55;;;9.40;99.90;;;;;;4973908;28;20019;-68
2022/12/31 01:36:24;;;;;;;68.53;9.82;;;9.30;99.90;;;;;;4965154;28;20030;-68
2022/12/31 01:38:50;;;;;;;67.32;9.43;;;9.40;99.90;;;;;;4974425;28;20035;-68
2022/12/31 01:41:23;;;;;;;58.90;8.77;;;9.40;99.90;;;;;;4975330;28;20031;-67
2022/12/31 01:43:57;;;;;;;64.53;8.88;;;9.30;99.90;;;;;;4974643;28;20593;-67
2022/12/31 01:46:35;;;;;;;64.75;7.93;;;9.30;99.90;;;;;;4974879;28;20033;-67
2022/12/31 01:49:20;;;;;;;69.70;8.85;;;9.20;99.90;;;;;;4974460;28;20039;-68
2022/12/31 01:52:03;;;;;;;57.20;9.27;;;9.20;99.90;;;;;;4974309;28;20026;-68
2022/12/31 01:54:32;;;;;;;71.55;8.52;;;9.10;99.90;;;;;;4976831;28;20101;-67
2022/12/31 01:56:58;;;;;;;70.18;8.95;;;9.10;99.90;;;;;;4981050;28;20019;-68
2022/12/31 01:59:27;;;;;;;83.10;11.55;;;9.10;99.90;;;;;;4980928;28;20033;-67
2022/12/31 02:01:52;;;;;;;68.18;8.80;;;9.10;99.90;;;;;;4980404;28;20034;-68
2022/12/31 02:04:20;;;;;;;74.45;8.75;;;9.10;99.90;;;;;;4980648;28;20031;-68
2022/12/31 02:06:54;;;;;;;70.65;9.52;;;9.00;99.90;;;;;;4980846;28;20039;-67
2022/12/31 02:09:20;;;;;;;86.63;9.73;;;9.10;99.90;;;;;;4979709;28;20039;-68
2022/12/31 02:11:45;;;;;;;94.00;9.30;;;9.10;99.90;;;;;;4979550;28;20042;-68
2022/12/31 02:14:20;;;;;;;59.17;8.38;;;9.10;99.90;;;;;;4980764;28;20061;-68
2022/12/31 02:17:16;;;;;;;69.38;9.07;;;9.10;99.90;;;;;;4980753;28;20019;-68
2022/12/31 02:20:00;;;;;;;70.38;9.48;;;9.00;99.90;;;;;;4980743;28;20431;-67
2022/12/31 02:22:44;;;;;;;65.85;8.82;;;9.10;99.90;;;;;;4979876;28;20069;-68
2022/12/31 02:25:31;;;;;;;53.20;8.32;;;9.10;99.90;;;;;;4980697;28;20034;-67
2022/12/31 02:28:41;;;;;;;58.63;8.82;;;9.20;99.90;;;;;;4980095;28;20023;-68
2022/12/31 02:31:32;;;;;;;75.88;9.57;;;9.10;99.90;;;;;;4980360;28;20030;-67
2022/12/31 02:34:10;;;;;;;80.57;10.07;;;9.10;99.90;;;;;;4961570;28;20027;-67
2022/12/31 02:36:41;;;;;;;72.57;9.70;;;9.00;99.90;;;;;;4979217;28;20026;-68
2022/12/31 02:39:08;;;;;;;65.88;8.27;;;9.10;99.90;;;;;;4981093;28;20094;-67
2022/12/31 02:41:52;;;;;;;57.55;8.13;;;9.10;99.90;;;;;;4980467;28;20019;-68
2022/12/31 02:44:41;;;;;;;64.55;9.43;;;9.00;99.90;;;;;;4980131;28;20027;-68
2022/12/31 02:47:12;;;;;;;70.95;8.68;;;9.00;99.90;;;;;;4979646;28;20046;-68
2022/12/31 02:50:08;;;;;;;80.07;10.80;;;9.00;99.90;;;;;;4980386;28;20026;-67
2022/12/31 02:53:07;;;;;;;77.53;9.07;;;8.90;99.90;;;;;;4973227;28;20042;-68
2022/12/31 02:55:45;;;;;;;81.68;9.40;;;8.90;99.90;;;;;;4970271;28;20101;-68
2022/12/31 02:58:10;;;;;;;84.40;9.57;;;9.00;99.90;;;;;;4979943;28;20435;-68
2022/12/31 03:03:26;;;;;;;59.95;8.75;;;8.90;99.90;;;;;;4980465;28;20406;-67
2022/12/31 03:05:52;;;;;;;79.45;8.93;;;8.90;99.90;;;;;;4978296;28;20027;-67
2022/12/31 03:08:25;;;;;;;64.82;9.27;;;8.90;99.90;;;;;;4976914;28;20109;-67
2022/12/31 03:10:50;;;;;;;55.72;10.18;;;8.90;99.90;;;;;;4977073;28;20139;-68
2022/12/31 03:13:16;;;;;;;69.22;8.65;;;8.90;99.90;;;;;;4976784;28;20504;-68
2022/12/31 03:15:42;;;;;;;67.63;9.23;;;8.90;99.90;;;;;;4976574;28;20054;-68
2022/12/31 03:18:13;;;;;;;76.32;9.32;;;8.90;99.90;;;;;;4977349;28;20027;-67
2022/12/31 03:23:28;;;;;;;62.72;8.35;;;8.90;99.90;;;;;;4973534;28;20049;-68
2022/12/31 03:25:55;;;;;;;73.30;7.85;;;8.90;99.90;;;;;;4976134;28;20029;-68
2022/12/31 03:28:24;;;;;;;60.30;10.07;;;8.90;99.90;;;;;;4976063;28;20041;-68
2022/12/31 03:30:53;;;;;;;56.97;8.60;;;8.90;99.90;;;;;;4975882;28;20114;-68
2022/12/31 03:33:19;;;;;;;68.22;8.82;;;9.00;99.90;;;;;;4976419;28;20098;-68
2022/12/31 03:35:46;;;;;;;64.95;8.25;;;8.90;99.90;;;;;;4957764;28;20059;-67
2022/12/31 03:38:12;;;;;;;65.25;6.55;;;8.90;99.90;;;;;;4957398;28;20023;-67
2022/12/31 03:40:44;;;;;;;54.22;6.95;;;8.90;99.90;;;;;;4957649;28;20058;-68
2022/12/31 03:43:10;;;;;;;64.22;8.75;;;9.00;99.90;;;;;;4970981;28;20086;-68
2022/12/31 03:45:36;;;;;;;67.45;8.55;;;9.00;99.90;;;;;;4976154;28;20085;-68
2022/12/31 03:48:03;;;;;;;63.15;7.50;;;9.00;99.90;;;;;;4976611;28;20055;-68
2022/12/31 03:50:29;;;;;;;53.67;7.07;;;9.00;99.90;;;;;;4976379;28;20500;-68
2022/12/31 03:52:55;;;;;;;63.33;6.80;;;9.10;99.90;;;;;;4976204;28;20093;-68
2022/12/31 03:55:21;;;;;;;62.60;8.60;;;9.10;99.90;;;;;;4976499;28;20077;-67
2022/12/31 03:57:46;;;;;;;50.65;6.45;;;9.10;99.90;;;;;;4976068;28;20109;-68
2022/12/31 04:00:16;;;;;;;77.72;7.10;;;9.10;99.90;;;;;;4976279;28;20023;-68
2022/12/31 04:02:42;;;;;;;52.80;8.35;;;9.10;99.90;;;;;;4976367;28;20033;-67
2022/12/31 04:05:08;;;;;;;46.15;6.90;;;9.10;99.90;;;;;;4976446;28;20031;-67
2022/12/31 04:07:33;;;;;;;47.42;6.88;;;9.10;99.90;;;;;;4976071;28;20486;-68
2022/12/31 04:09:59;;;;;;;45.35;6.65;;;9.10;99.90;;;;;;4976048;28;20037;-67
2022/12/31 04:12:24;;;;;;;43.28;5.68;;;9.10;99.90;;;;;;4975740;28;20442;-68
2022/12/31 04:14:50;;;;;;;51.17;6.80;;;9.10;99.90;;;;;;4976027;28;20022;-67
2022/12/31 04:17:16;;;;;;;51.38;7.30;;;9.00;99.90;;;;;;4974854;28;20110;-68
2022/12/31 04:19:41;;;;;;;67.80;7.13;;;9.00;99.90;;;;;;4975777;28;20034;-67
2022/12/31 04:22:07;;;;;;;39.33;5.88;;;9.00;99.90;;;;;;4975655;28;20077;-67
2022/12/31 04:24:33;;;;;;;48.83;6.05;;;9.00;99.90;;;;;;4975789;28;20031;-68
2022/12/31 04:26:58;;;;;;;38.85;5.55;;;9.10;99.90;;;;;;4975206;28;20022;-68
2022/12/31 04:29:24;;;;;;;35.00;5.45;;;9.10;99.90;;;;;;4976045;28;20025;-67
2022/12/31 04:31:50;;;;;;;40.20;5.50;;;9.00;99.90;;;;;;4975380;28;20028;-68
2022/12/31 04:34:15;;;;;;;34.60;5.80;;;9.10;99.90;;;;;;4976211;28;20030;-68
2022/12/31 04:36:41;;;;;;;41.92;6.40;;;9.10;99.90;;;;;;4975572;28;20026;-69
2022/12/31 04:39:06;;;;;;;48.53;6.45;;;9.10;99.90;;;;;;4966102;28;20025;-68
2022/12/31 04:41:32;;;;;;;41.97;5.47;;;9.10;99.90;;;;;;4975650;28;20382;-68
2022/12/31 04:43:58;;;;;;;33.22;5.25;;;9.10;99.90;;;;;;4975398;28;20031;-68
2022/12/31 04:46:30;;;;;;;54.92;7.28;;;9.10;99.90;;;;;;4975155;28;20066;-68
2022/12/31 04:48:56;;;;;;;48.10;6.10;;;9.10;99.90;;;;;;4974969;28;20030;-68
2022/12/31 04:51:22;;;;;;;34.45;5.40;;;9.10;99.90;;;;;;4975461;28;20162;-68
2022/12/31 04:53:48;;;;;;;51.00;6.18;;;9.10;99.90;;;;;;4975043;28;20026;-68
2022/12/31 04:56:15;;;;;;;41.38;5.72;;;9.10;99.90;;;;;;4975415;28;20461;-68
2022/12/31 04:58:40;;;;;;;53.00;6.88;;;9.10;99.90;;;;;;4975848;28;20023;-67
2022/12/31 05:01:07;;;;;;;30.83;6.35;;;9.10;99.90;;;;;;4974907;28;20049;-68
2022/12/31 05:03:33;;;;;;;40.95;6.13;;;9.20;99.90;;;;;;4967452;28;20042;-68
2022/12/31 05:06:21;;;;;;;60.15;6.85;;;9.20;99.90;;;;;;4955846;28;20454;-67
2022/12/31 05:08:48;;;;;;;46.40;6.47;;;9.20;99.90;;;;;;4972662;28;20050;-68
2022/12/31 05:11:14;;;;;;;52.75;6.35;;;9.20;99.90;;;;;;4975181;28;20031;-67
2022/12/31 05:13:40;;;;;;;51.60;7.07;;;9.20;99.90;;;;;;4974959;28;20031;-67
2022/12/31 05:16:06;;;;;;;59.22;7.45;;;9.30;99.90;;;;;;4975182;28;20026;-67
2022/12/31 05:18:33;;;;;;;66.38;8.65;;;9.30;99.90;;;;;;4974296;28;20035;-68
2022/12/31 05:20:58;;;;;;;47.70;5.85;;;9.30;99.90;;;;;;4974657;28;20035;-68
2022/12/31 05:23:24;;;;;;;43.20;6.25;;;9.30;99.90;;;;;;5005444;23;20077;-71
2022/12/31 05:25:50;;;;;;;48.55;6.80;;;9.30;99.90;;;;;;4975120;28;20031;-71
2022/12/31 05:28:16;;;;;;;47.88;6.28;;;9.30;99.90;;;;;;4974696;28;20058;-71
2022/12/31 05:30:42;;;;;;;47.20;5.97;;;9.40;99.90;;;;;;4972862;28;20030;-71
2022/12/31 05:33:07;;;;;;;55.60;5.93;;;9.30;99.90;;;;;;4961318;28;20487;-71
2022/12/31 05:35:33;;;;;;;43.88;6.38;;;9.30;99.90;;;;;;4955488;29;20050;-71
2022/12/31 05:38:00;;;;;;;55.50;7.60;;;9.30;99.90;;;;;;4955442;29;20494;-70
2022/12/31 05:40:26;;;;;;;50.17;7.00;;;9.40;99.90;;;;;;4955459;29;20027;-70
2022/12/31 05:42:52;;;;;;;63.78;7.82;;;9.40;99.90;;;;;;4967338;28;20027;-71
2022/12/31 05:45:18;;;;;;;64.18;7.47;;;9.50;99.90;;;;;;4974579;28;20031;-71
2022/12/31 05:47:44;;;;;;;62.15;8.23;;;9.50;99.90;;;;;;4974092;28;20494;-71
2022/12/31 05:50:14;;;;;;;46.35;6.25;;;9.50;99.90;;;;;;4973993;28;20042;-71
2022/12/31 05:52:39;;;;;;;52.92;7.03;;;9.60;99.90;;;;;;4974213;28;20023;-71
2022/12/31 05:55:05;;;;;;;43.22;6.13;;;9.60;99.90;;;;;;4974771;28;20117;-71
2022/12/31 05:57:31;;;;;;;57.30;7.55;;;9.60;99.90;;;;;;4975158;28;20018;-70
2022/12/31 05:59:56;;;;;;;47.33;6.28;;;9.70;99.90;;;;;;4974513;28;20023;-71
2022/12/31 06:02:22;;;;;;;46.42;5.95;;;9.70;99.90;;;;;;4973063;28;20069;-71
2022/12/31 06:04:48;;;;;;;58.00;7.72;;;9.70;99.90;;;;;;4974389;28;20029;-71
2022/12/31 06:07:14;;;;;;;54.53;7.95;;;9.70;99.90;;;;;;4974723;28;20475;-70
2022/12/31 06:09:39;;;;;;;56.50;6.57;;;9.70;99.90;;;;;;4989174;28;20035;-71
2022/12/31 06:12:05;;;;;;;57.42;7.15;;;9.70;99.90;;;;;;4974339;28;20102;-70
2022/12/31 06:14:31;;;;;;;64.72;7.28;;;9.70;99.90;;;;;;4974318;28;20027;-70
2022/12/31 06:16:57;;;;;;;64.30;9.30;;;9.80;99.90;;;;;;4974199;28;20117;-71
2022/12/31 06:19:23;;;;;;;43.22;7.07;;;9.80;99.90;;;;;;4974620;28;20439;-71
2022/12/31 06:21:48;;;;;;;59.42;9.45;;;9.80;99.90;;;;;;4973956;28;20110;-71
2022/12/31 06:24:14;;;;;;;58.53;8.25;;;9.70;99.90;;;;;;4974271;28;20122;-70
2022/12/31 06:26:39;;;;;;;56.88;9.32;;;9.80;99.90;;;;;;4972842;28;20077;-71
2022/12/31 06:29:05;;;;;;;50.92;7.15;;;9.80;99.90;;;;;;4974211;28;20074;-71
2022/12/31 06:31:31;;;;;;;53.22;7.75;;;9.80;99.90;;;;;;4974118;28;20038;-71
2022/12/31 06:33:56;;;;;;;62.22;8.52;;;9.80;99.90;;;;;;4974511;28;20037;-70
2022/12/31 06:36:22;;;;;;;50.05;7.65;;;9.70;99.90;;;;;;4974269;28;20092;-71
2022/12/31 06:38:48;;;;;;;51.10;7.22;;;9.70;99.90;;;;;;4974116;28;20073;-72
2022/12/31 06:41:15;;;;;;;36.42;6.45;;;9.70;99.90;;;;;;4974750;28;20031;-71
2022/12/31 06:43:41;;;;;;;49.42;7.55;;;9.70;99.90;;;;;;4977413;28;20030;-71
2022/12/31 06:46:10;;;;;;;41.78;6.32;;;9.70;99.90;;;;;;4977735;28;20403;-71
2022/12/31 06:48:35;;;;;;;42.55;7.50;;;9.70;99.90;;;;;;4977933;28;20384;-70
2022/12/31 06:51:09;;;;;;;57.33;7.30;;;9.70;99.90;;;;;;4968644;28;20038;-71
2022/12/31 06:53:35;;;;;;;71.82;10.45;;;9.60;99.90;;;;;;4973527;28;20101;-71
2022/12/31 06:56:06;;;;;;;49.97;6.85;;;9.70;99.90;;;;;;4977223;28;20465;-71
2022/12/31 06:58:31;;;;;;;41.78;7.05;;;9.70;99.90;;;;;;4975996;28;20034;-71
2022/12/31 07:01:07;;;;;;;46.60;7.97;;;9.60;99.90;;;;;;4977250;28;20027;-71
2022/12/31 07:03:39;;;;;;;65.03;8.70;;;9.60;99.90;;;;;;4977033;28;20031;-71
2022/12/31 07:06:25;;;;;;;41.10;5.70;;;9.60;99.90;;;;;;4976065;28;20086;-71
2022/12/31 07:09:00;;;;;;;45.58;6.85;;;9.60;99.90;;;;;;4969977;28;20494;-71
2022/12/31 07:11:31;;;;;;;37.72;5.50;;;9.60;99.90;;;;;;4976735;28;20038;-71
2022/12/31 07:14:08;;;;;;;55.55;7.30;;;9.60;99.90;;;;;;4957857;28;20034;-71
2022/12/31 07:17:32;;;;;;;48.53;6.13;;;9.60;99.90;;;;;;4958175;29;20027;-70
2022/12/31 07:20:09;;;;;;;50.43;6.37;;;9.60;99.90;;;;;;4988005;28;20101;-71
2022/12/31 07:22:35;;;;;;;59.38;7.75;;;9.70;99.90;;;;;;4976185;28;20050;-71
2022/12/31 07:25:01;;;;;;;52.33;6.97;;;9.60;99.90;;;;;;4976839;28;20478;-71
2022/12/31 07:27:52;;;;;;;38.45;6.80;;;9.60;99.90;;;;;;4976585;28;20063;-71
2022/12/31 07:30:27;;;;;;;42.08;7.40;;;9.70;99.90;;;;;;4957370;28;20023;-71
2022/12/31 07:33:01;;;;;;;49.53;7.03;;;9.80;99.90;;;;;;4974914;23;20093;-70
2022/12/31 07:35:30;;;;;;;46.67;7.10;;;9.80;99.90;;;;;;4977815;28;20054;-70
2022/12/31 07:38:17;;;;;;;46.97;8.52;;;9.90;99.90;;;;;;4976112;28;20090;-72
2022/12/31 07:40:46;;;;;;;49.88;7.35;;;9.80;99.90;;;;;;4972392;28;20126;-70
2022/12/31 07:43:35;;;;;;;38.72;5.85;;;9.80;99.90;;;;;;4978480;28;20027;-71
2022/12/31 07:46:12;;;;;;;35.13;6.95;;;9.80;99.90;;;;;;4977109;28;20019;-71
2022/12/31 07:48:38;;;;;;;49.88;7.35;;;9.90;99.90;;;;;;4976745;28;20103;-70
2022/12/31 07:51:03;;;;;;;52.42;7.03;;;9.90;99.90;;;;;;4976404;28;20109;-71
2022/12/31 07:53:29;;;;;;;38.97;7.18;;;10.00;99.90;;;;;;4973873;28;20019;-71
2022/12/31 07:56:04;;;;;;;48.80;6.78;;;10.00;99.90;;;;;;4972986;28;20038;-71
2022/12/31 07:58:44;;;;;;;47.95;8.02;;;10.00;99.90;;;;;;4966842;28;20023;-71
2022/12/31 08:01:15;;;;;;;36.88;6.18;;;10.10;99.90;;;;;;4974041;28;20495;-71
2022/12/31 08:03:54;;;;;;;38.33;5.95;;;10.10;99.90;;;;;;4962376;28;20086;-72
2022/12/31 08:06:43;;;;;;;28.23;5.85;;;10.10;99.90;;;;;;4970586;28;20127;-71
2022/12/31 08:09:38;;;;;;;36.65;5.40;;;10.20;99.90;;;;;;4972413;28;20035;-70
2022/12/31 08:12:04;;;;;;;42.33;6.68;;;10.20;99.90;;;;;;4970083;28;20513;-71
2022/12/31 08:14:35;;;;;;;34.30;5.25;;;10.20;99.90;;;;;;4971760;28;20122;-71
2022/12/31 08:17:01;;;;;;;50.65;5.80;;;10.20;99.90;;;;;;4973523;28;20035;-71
2022/12/31 08:19:31;;;;;;;36.83;5.25;;;10.20;99.90;;;;;;4972550;28;20035;-73
2022/12/31 08:22:21;;;;;;;26.95;5.85;;;10.20;99.90;;;;;;4968717;28;20518;-71
2022/12/31 08:24:52;;;;;;;29.00;5.03;;;10.20;99.90;;;;;;4968581;28;20031;-71
2022/12/31 08:27:53;;;;;;;26.60;5.80;;;10.20;99.90;;;;;;4973626;28;20045;-70
2022/12/31 08:30:20;;;;;;;31.73;6.40;;;10.20;99.90;;;;;;4971225;28;20533;-71
2022/12/31 08:33:02;;;;;;;43.80;9.85;;;10.20;99.90;;;;;;4973638;28;20041;-71
2022/12/31 08:36:00;;;;;;;31.23;7.60;;;10.10;99.90;;;;;;4971138;28;20054;-71
2022/12/31 08:38:38;;;;;;;36.85;9.98;;;10.10;99.90;;;;;;4942373;28;20042;-71
2022/12/31 08:41:19;;;;;;;34.65;13.10;;;9.80;99.90;;;;;;4973071;28;20117;-71
2022/12/31 08:44:05;;;;;;;45.17;14.23;;;9.90;99.90;;;;;;4972365;28;20033;-72
2022/12/31 08:46:43;;;;;;;32.13;14.13;;;9.80;99.90;;;;;;4962775;28;20097;-70
2022/12/31 08:49:10;;;;;;;48.60;17.80;;;9.80;99.90;;;;;;4971994;28;20030;-70
2022/12/31 08:51:36;;;;;;;44.35;15.45;;;9.70;99.90;;;;;;4973155;28;20026;-69
2022/12/31 08:54:02;;;;;;;36.03;16.73;;;9.70;99.90;;;;;;4973063;28;20109;-71
2022/12/31 08:56:37;;;;;;;29.45;14.82;;;9.60;99.90;;;;;;4971347;28;20031;-70
2022/12/31 08:59:15;;;;;;;41.72;18.40;;;9.60;99.90;;;;;;4972948;28;20041;-70
2022/12/31 09:02:10;;;;;;;39.80;17.65;;;9.60;99.90;;;;;;4970300;28;20166;-71
2022/12/31 09:04:41;;;;;;;33.05;14.88;;;9.60;99.90;;;;;;4966256;28;20077;-71
2022/12/31 09:07:08;;;;;;;38.50;15.40;;;9.60;99.90;;;;;;4972256;28;20030;-71
2022/12/31 09:09:51;;;;;;;43.13;15.75;;;9.50;99.90;;;;;;4972665;28;20049;-71
2022/12/31 09:12:30;;;;;;;34.70;14.05;;;9.50;99.90;;;;;;4971543;28;20394;-72
2022/12/31 09:15:16;;;;;;;38.75;13.38;;;9.50;99.90;;;;;;4966781;28;20486;-71
2022/12/31 09:17:49;;;;;;;27.40;11.80;;;9.50;99.90;;;;;;4970729;28;20101;-71
2022/12/31 09:20:33;;;;;;;25.08;10.52;;;9.50;99.90;;;;;;4972540;28;20027;-73
2022/12/31 09:23:04;;;;;;;29.08;10.30;;;9.50;99.90;;;;;;4967201;28;20034;-72
2022/12/31 09:25:30;;;;;;;29.55;9.70;;;9.50;99.90;;;;;;4970191;28;20058;-73
2022/12/31 09:28:14;;;;;;;23.58;8.85;;;9.50;99.90;;;;;;4969719;28;20114;-72
2022/12/31 09:31:07;;;;;;;38.75;7.95;;;9.50;99.90;;;;;;4972067;28;20145;-72
2022/12/31 09:33:54;;;;;;;20.90;7.75;;;9.50;99.90;;;;;;4972109;28;20031;-71
2022/12/31 09:36:35;;;;;;;22.52;7.47;;;9.50;99.90;;;;;;4970133;28;20537;-72
2022/12/31 09:39:12;;;;;;;28.50;6.53;;;9.50;99.90;;;;;;4970990;28;20031;-71
2022/12/31 09:42:20;;;;;;;19.20;5.70;;;9.50;99.90;;;;;;4970202;28;20050;-72
2022/12/31 09:44:58;;;;;;;15.77;5.38;;;9.40;99.90;;;;;;4970146;28;20045;-75
2022/12/31 09:47:44;;;;;;;13.52;3.55;;;9.40;99.90;;;;;;4969273;28;20113;-72
2022/12/31 09:50:21;;;;;;;17.33;4.35;;;9.40;99.90;;;;;;4970936;28;20039;-71
2022/12/31 09:52:53;;;;;;;16.83;5.00;;;9.30;99.90;;;;;;4972402;28;20023;-71
2022/12/31 09:55:28;;;;;;;18.60;4.00;;;9.30;99.90;;;;;;4970218;28;20022;-72
2022/12/31 09:58:31;;;;;;;16.40;3.83;;;9.40;99.90;;;;;;4961447;28;20058;-71
2022/12/31 10:00:59;;;;;;;17.45;4.60;;;9.40;99.90;;;;;;4970549;28;20455;-71
2022/12/31 10:04:05;;;;;;;23.55;4.28;;;9.30;99.90;;;;;;4971733;28;20043;-71
2022/12/31 10:06:33;;;;;;;19.58;3.30;;;9.30;99.90;;;;;;4953320;28;20047;-72
2022/12/31 10:09:18;;;;;;;16.75;4.15;;;9.40;99.90;;;;;;4969859;28;20031;-71
2022/12/31 10:12:03;;;;;;;14.80;3.25;;;9.30;99.90;;;;;;4970215;28;20030;-71
2022/12/31 10:14:59;;;;;;;16.85;3.45;;;9.30;99.90;;;;;;4973227;28;20034;-71
2022/12/31 10:17:33;;;;;;;16.58;3.00;;;9.20;99.90;;;;;;4976909;28;20097;-70
2022/12/31 10:20:29;;;;;;;14.57;4.78;;;9.30;99.90;;;;;;4977900;28;20076;-70
2022/12/31 10:23:16;;;;;;;15.75;2.92;;;9.30;99.90;;;;;;4975575;28;20826;-72
2022/12/31 10:26:08;;;;;;;18.75;2.58;;;9.30;99.90;;;;;;4976927;28;20126;-71
2022/12/31 10:28:47;;;;;;;11.93;2.35;;;9.30;99.90;;;;;;4974611;28;20066;-71
2022/12/31 10:31:20;;;;;;;11.25;2.47;;;9.20;99.90;;;;;;4976883;28;20505;-72
2022/12/31 10:34:10;;;;;;;10.47;2.30;;;9.20;99.90;;;;;;4976797;28;20133;-71
2022/12/31 10:37:16;;;;;;;11.82;2.30;;;9.20;99.90;;;;;;4978384;28;20413;-71
2022/12/31 10:39:55;;;;;;;12.00;2.97;;;9.20;99.90;;;;;;4976656;28;20118;-71
2022/12/31 10:42:49;;;;;;;11.25;2.10;;;9.10;99.90;;;;;;4977732;28;20490;-71
2022/12/31 10:45:38;;;;;;;12.38;2.97;;;9.10;99.90;;;;;;4977688;28;20054;-71
2022/12/31 10:48:31;;;;;;;7.38;2.05;;;9.10;99.90;;;;;;4978346;28;20105;-71
2022/12/31 10:51:19;;;;;;;8.15;2.63;;;9.00;99.90;;;;;;4978125;28;20038;-71
2022/12/31 10:54:28;;;;;;;9.73;2.10;;;9.00;99.90;;;;;;4976258;28;20023;-71
2022/12/31 10:57:08;;;;;;;12.52;2.35;;;9.00;99.90;;;;;;4968267;28;20545;-71
2022/12/31 10:59:58;;;;;;;10.57;2.08;;;9.00;99.90;;;;;;4976507;28;20118;-71
2022/12/31 11:02:23;;;;;;;10.52;1.92;;;9.00;99.90;;;;;;4967275;28;20033;-71
2022/12/31 11:04:54;;;;;;;7.30;1.60;;;8.90;99.90;;;;;;4964730;28;20027;-71
2022/12/31 11:07:50;;;;;;;7.05;1.20;;;9.00;99.90;;;;;;4959216;28;20835;-71
2022/12/31 11:10:52;;;;;;;8.45;1.30;;;9.00;99.90;;;;;;4972674;28;20043;-71
2022/12/31 11:13:17;;;;;;;5.90;1.83;;;9.00;99.90;;;;;;4972449;28;20039;-70
2022/12/31 11:16:13;;;;;;;3.05;1.27;;;9.00;99.90;;;;;;4974270;28;20151;-73
2022/12/31 11:18:51;;;;;;;6.57;1.50;;;9.00;99.90;;;;;;4966904;28;20027;-71
2022/12/31 11:21:41;;;;;;;3.78;2.10;;;9.00;99.90;;;;;;4973444;28;20061;-71
2022/12/31 11:24:19;;;;;;;6.82;2.13;;;9.00;99.90;;;;;;4970041;28;20049;-71
2022/12/31 11:27:16;;;;;;;8.00;2.92;;;9.00;99.90;;;;;;4971988;28;20037;-72
2022/12/31 11:30:00;;;;;;;12.35;3.08;;;9.10;99.90;;;;;;4965736;28;20026;-71
2022/12/31 11:32:53;;;;;;;6.43;2.13;;;9.10;99.90;;;;;;4972902;28;20106;-72
2022/12/31 11:35:39;;;;;;;8.38;2.15;;;9.00;99.90;;;;;;4961124;28;20573;-72
2022/12/31 11:38:22;;;;;;;6.18;2.22;;;9.00;99.90;;;;;;4973044;28;20027;-72
2022/12/31 11:41:13;;;;;;;10.48;1.90;;;9.00;99.90;;;;;;4971117;28;20027;-72
2022/12/31 11:44:02;;;;;;;7.78;2.10;;;8.90;99.90;;;;;;4972645;28;20089;-71
2022/12/31 11:46:42;;;;;;;7.82;1.88;;;9.00;99.90;;;;;;4959515;28;20031;-74
2022/12/31 11:49:40;;;;;;;3.60;2.28;;;9.00;99.90;;;;;;4971043;28;20041;-71
2022/12/31 11:52:29;;;;;;;7.13;2.72;;;8.90;99.90;;;;;;4971511;28;20046;-71
2022/12/31 11:55:32;;;;;;;5.82;2.63;;;8.90;99.90;;;;;;4968709;28;20050;-70
2022/12/31 11:58:08;;;;;;;2.80;2.17;;;8.90;99.90;;;;;;4971111;28;20564;-72
2022/12/31 12:00:34;;;;;;;4.40;2.50;;;8.90;99.90;;;;;;4966441;28;20035;-71
2022/12/31 12:03:03;;;;;;;5.13;2.20;;;8.90;99.90;;;;;;4970458;28;20391;-72
2022/12/31 12:05:29;;;;;;;4.25;2.17;;;8.90;99.90;;;;;;4972286;28;20031;-71
2022/12/31 12:07:55;;;;;;;4.00;2.25;;;9.10;99.90;;;;;;4972162;28;20031;-70
2022/12/31 12:10:26;;;;;;;8.25;2.05;;;9.00;99.90;;;;;;4970215;28;20034;-71
2022/12/31 12:12:54;;;;;;;4.35;1.42;;;9.00;99.90;;;;;;4970724;28;20033;-71
2022/12/31 12:15:25;;;;;;;5.75;2.13;;;9.00;99.90;;;;;;4963506;28;20031;-71
2022/12/31 12:18:00;;;;;;;3.85;1.67;;;9.00;99.90;;;;;;4964395;28;20510;-71
2022/12/31 12:20:32;;;;;;;4.95;1.90;;;9.00;99.90;;;;;;4962658;28;20084;-71
2022/12/31 12:23:01;;;;;;;3.42;1.45;;;9.10;99.90;;;;;;4964994;28;20041;-72
2022/12/31 12:25:42;;;;;;;3.83;1.60;;;9.10;99.90;;;;;;4957758;28;20023;-71
2022/12/31 12:28:29;;;;;;;6.80;2.25;;;9.10;99.90;;;;;;4962272;28;20038;-71
2022/12/31 12:31:03;;;;;;;1.77;0.98;;;9.10;99.90;;;;;;4974616;28;20039;-71
2022/12/31 12:33:39;;;;;;;1.73;1.13;;;9.10;99.90;;;;;;4961199;28;20380;-71
2022/12/31 12:36:11;;;;;;;3.53;1.23;;;9.20;99.90;;;;;;4960742;28;20561;-70
2022/12/31 12:38:38;;;;;;;1.10;1.00;;;9.20;99.90;;;;;;4959715;28;20042;-72
2022/12/31 12:41:09;;;;;;;0.88;0.70;;;9.30;99.90;;;;;;4957840;28;20031;-71
2022/12/31 12:43:36;;;;;;;4.53;0.90;;;9.20;99.90;;;;;;4961326;28;20057;-71
2022/12/31 12:46:30;;;;;;;0.70;0.68;;;9.20;99.90;;;;;;4959704;28;20037;-71
2022/12/31 12:48:56;;;;;;;1.20;0.80;;;9.30;99.90;;;;;;4963759;28;20085;-71
2022/12/31 12:51:59;;;;;;;1.10;1.00;;;9.30;99.90;;;;;;4958349;28;20466;-71
2022/12/31 12:55:07;;;;;;;2.67;1.58;;;9.40;99.90;;;;;;4976787;28;20015;-71
2022/12/31 12:58:03;;;;;;;3.88;2.10;;;9.60;99.90;;;;;;4957193;28;20487;-71
2022/12/31 13:00:47;;;;;;;13.00;4.13;;;9.70;99.90;;;;;;4945718;28;20093;-71
2022/12/31 13:03:50;;;;;;;12.23;3.85;;;10.00;99.90;;;;;;4957679;28;20032;-70
2022/12/31 13:06:27;;;;;;;21.65;5.10;;;10.10;99.90;;;;;;4979129;28;20070;-71
2022/12/31 13:09:27;;;;;;;29.48;5.88;;;10.10;99.90;;;;;;4963608;28;20035;-71
2022/12/31 13:12:15;;;;;;;27.15;5.63;;;10.20;99.90;;;;;;4969604;28;20039;-72
2022/12/31 13:15:01;;;;;;;31.92;4.43;;;10.20;99.90;;;;;;4971080;28;20018;-72
2022/12/31 13:17:41;;;;;;;34.10;4.95;;;10.20;99.90;;;;;;4964584;28;20035;-71
2022/12/31 13:20:46;;;;;;;31.67;5.13;;;10.10;99.90;;;;;;4968856;28;20022;-71
2022/12/31 13:23:20;;;;;;;33.63;5.80;;;10.10;99.90;;;;;;4952846;28;20072;-71
2022/12/31 13:26:05;;;;;;;35.63;6.10;;;10.10;99.90;;;;;;4971295;28;20062;-70
2022/12/31 13:28:33;;;;;;;46.75;6.25;;;10.10;99.90;;;;;;4971767;28;20023;-71